Airport Name : Araxa

Other Name : Araxa

ICAO : SBAX

IATA : AAX

FAA :

Latitude : -19.563247

Longitude : -46.960358

Country : Brazil

Local Date and Time : 07 Dec 2022 16:01

 

TAF (Terminal Aerodrome Forecast)

 

METAR (METeorological Aerodrome Report)

SBAX 071800Z AUTO 23009KT 9999 FEW044 24/21 Q1014

SBAX 071700Z AUTO 26010KT 220V290 9999 VCTS FEW008 BKN036 //////CB 23/22 Q1015 RERA

SBAX 071600Z 28009KT 250V340 9999 BKN016 BKN025 BKN080 26/20 Q1016

To Charter a Jet Click here.